Time;durP1;ratioP1;P1;durP2;ratioP2;P2;SDS_P1;SDS_P2;PMS_P1;PMS_P2;Temp;Humidity;BMP_temperature;BMP_pressure;BME280_temperature;BME280_humidity;BME280_pressure;Samples;Min_cycle;Max_cycle;Signal;HPM_P1;HPM_P2
2023/09/28 00:02:52;;;;;;;6.28;3.72;;;;;;;18.23;91.58;101223.25;5074636;28;20574;-81
2023/09/28 00:05:19;;;;;;;4.85;3.53;;;;;;;18.22;91.17;101226.06;5067064;28;20074;-81
2023/09/28 00:07:47;;;;;;;7.45;3.47;;;;;;;18.21;91.28;101235.06;5052260;28;20472;-81
2023/09/28 00:10:15;;;;;;;5.07;3.60;;;;;;;18.21;91.41;101235.88;5067453;28;20145;-81
2023/09/28 00:12:45;;;;;;;5.63;3.60;;;;;;;18.16;91.25;101225.69;5080243;28;20032;-81
2023/09/28 00:15:11;;;;;;;6.50;3.45;;;;;;;18.16;91.92;101228.34;5088883;28;20034;-80
2023/09/28 00:17:39;;;;;;;4.13;3.72;;;;;;;18.14;91.86;101235.66;5089653;28;20054;-81
2023/09/28 00:20:09;;;;;;;6.97;3.58;;;;;;;18.07;92.32;101229.28;5087989;28;20035;-81
2023/09/28 00:22:35;;;;;;;4.55;3.50;;;;;;;18.14;92.28;101235.66;5084307;28;20503;-77
2023/09/28 00:25:00;;;;;;;3.75;3.05;;;;;;;18.13;92.24;101244.66;5075893;28;20028;-81
2023/09/28 00:27:25;;;;;;;4.18;3.33;;;;;;;18.14;92.00;101241.00;5089106;28;20075;-82
2023/09/28 00:29:51;;;;;;;5.47;3.40;;;;;;;18.14;92.19;101246.31;5087084;28;20024;-77
2023/09/28 00:32:17;;;;;;;5.32;3.40;;;;;;;18.11;92.73;101254.63;5080594;28;20024;-78
2023/09/28 00:34:43;;;;;;;5.78;3.60;;;;;;;18.12;92.61;101253.63;5069068;28;20020;-81
2023/09/28 00:37:08;;;;;;;5.30;3.45;;;;;;;18.08;92.99;101254.91;5077942;28;20537;-80
2023/09/28 00:39:35;;;;;;;4.07;3.17;;;;;;;18.06;92.99;101258.72;5059513;28;20036;-76
2023/09/28 00:42:01;;;;;;;7.47;3.42;;;;;;;18.04;93.25;101256.22;5076604;28;20035;-80
2023/09/28 00:44:26;;;;;;;4.63;3.38;;;;;;;18.00;94.00;101260.16;5089845;28;20028;-77
2023/09/28 00:46:52;;;;;;;6.18;3.78;;;;;;;18.00;93.65;101270.78;5090009;28;20032;-77
2023/09/28 00:49:17;;;;;;;5.05;3.67;;;;;;;17.98;94.06;101272.78;5089016;28;20058;-80
2023/09/28 00:51:47;;;;;;;4.45;2.92;;;;;;;17.97;93.96;101267.59;5090484;28;20111;-81
2023/09/28 00:54:14;;;;;;;5.80;3.17;;;;;;;17.91;94.55;101261.06;5088344;28;20028;-76
2023/09/28 00:56:40;;;;;;;4.45;3.40;;;;;;;17.89;94.79;101262.19;5080889;28;20058;-77
2023/09/28 00:59:06;;;;;;;5.78;3.60;;;;;;;17.87;95.20;101259.69;5068287;28;20064;-76
2023/09/28 01:01:32;;;;;;;5.13;3.67;;;;;;;17.83;95.87;101253.00;5069079;28;20042;-76
2023/09/28 01:04:04;;;;;;;6.05;3.80;;;;;;;17.79;95.60;101259.59;5052024;28;20024;-76
2023/09/28 01:06:30;;;;;;;7.25;3.78;;;;;;;17.77;95.91;101257.09;5085054;28;20029;-77
2023/09/28 01:08:56;;;;;;;4.45;3.40;;;;;;;17.75;95.96;101260.91;5050336;28;20029;-81
2023/09/28 01:11:22;;;;;;;7.38;3.70;;;;;;;17.70;95.89;101268.50;5069701;28;20083;-81
2023/09/28 01:13:48;;;;;;;5.93;3.50;;;;;;;17.67;96.34;101263.47;5042382;28;20025;-79
2023/09/28 01:16:19;;;;;;;3.70;3.38;;;;;;;17.66;96.92;101261.78;5069060;28;20108;-79
2023/09/28 01:18:44;;;;;;;6.05;3.38;;;;;;;17.64;96.70;101269.06;5092934;28;20564;-80
2023/09/28 01:21:10;;;;;;;4.45;3.65;;;;;;;17.60;97.21;101257.00;5080230;28;20060;-76
2023/09/28 01:23:36;;;;;;;6.18;3.80;;;;;;;17.55;97.96;101268.94;5068753;28;20024;-79
2023/09/28 01:26:02;;;;;;;5.10;3.60;;;;;;;17.53;97.69;101276.25;5073200;28;20041;-77
2023/09/28 01:28:28;;;;;;;5.88;3.92;;;;;;;17.50;97.80;101273.88;5081002;28;20037;-77
2023/09/28 01:30:53;;;;;;;6.40;4.00;;;;;;;17.49;98.02;101269.53;5070774;28;20032;-80
2023/09/28 01:33:19;;;;;;;5.05;3.88;;;;;;;17.48;98.05;101267.03;5076263;28;20027;-80
2023/09/28 01:35:45;;;;;;;8.35;4.50;;;;;;;17.46;98.35;101266.34;5084224;28;20026;-79
2023/09/28 01:38:10;;;;;;;4.75;3.80;;;;;;;17.45;98.66;101264.66;5088868;28;20028;-82
2023/09/28 01:40:39;;;;;;;7.13;3.67;;;;;;;17.43;99.16;101271.97;5071050;28;20499;-81
2023/09/28 01:43:05;;;;;;;4.45;3.80;;;;;;;17.42;99.17;101275.59;5090361;28;20419;-81
2023/09/28 01:45:31;;;;;;;6.47;3.75;;;;;;;17.39;99.62;101279.41;5088464;28;20033;-81
2023/09/28 01:48:02;;;;;;;5.10;3.67;;;;;;;17.37;99.71;101285.84;5074029;28;20492;-81
2023/09/28 01:50:28;;;;;;;6.30;3.85;;;;;;;17.34;99.80;101276.34;5085880;28;20043;-81
2023/09/28 01:52:54;;;;;;;7.38;3.78;;;;;;;17.34;100.00;101283.50;5089661;28;20484;-81
2023/09/28 01:55:20;;;;;;;4.07;3.67;;;;;;;17.29;100.00;101275.94;5092040;28;20069;-81
2023/09/28 01:57:46;;;;;;;5.22;3.85;;;;;;;17.28;100.00;101284.91;5075689;28;20143;-80
2023/09/28 02:00:20;;;;;;;5.45;3.88;;;;;;;17.27;100.00;101287.72;5082496;28;20165;-80
2023/09/28 02:02:46;;;;;;;6.35;4.00;;;;;;;17.23;100.00;101292.50;5090103;28;20106;-77
2023/09/28 02:05:18;;;;;;;6.05;4.15;;;;;;;17.21;100.00;101294.44;5087619;28;20174;-80
2023/09/28 02:07:44;;;;;;;6.03;3.72;;;;;;;17.19;100.00;101296.41;5072858;28;20055;-80
2023/09/28 02:10:11;;;;;;;7.03;3.97;;;;;;;17.17;100.00;101306.34;5093947;28;20391;-80
2023/09/28 02:12:44;;;;;;;5.63;3.67;;;;;;;17.12;100.00;101306.78;5092916;28;20436;-80
2023/09/28 02:15:10;;;;;;;5.85;4.10;;;;;;;17.12;100.00;101306.78;5091250;28;20016;-77
2023/09/28 02:17:37;;;;;;;7.05;3.92;;;;;;;17.08;100.00;101310.72;5092751;28;20036;-80
2023/09/28 02:20:15;;;;;;;6.97;3.85;;;;;;;17.07;100.00;101308.22;5092492;28;20048;-81
2023/09/28 02:22:52;;;;;;;8.20;3.97;;;;;;;17.02;100.00;101303.31;5081396;28;20032;-81
2023/09/28 02:25:19;;;;;;;5.30;4.13;;;;;;;17.00;100.00;101297.31;5075114;28;20060;-77
2023/09/28 02:27:50;;;;;;;4.88;3.80;;;;;;;16.94;100.00;101311.19;5080481;28;20028;-77
2023/09/28 02:30:19;;;;;;;4.88;4.10;;;;;;;16.88;100.00;101309.94;5087317;28;20030;-77
2023/09/28 02:32:52;;;;;;;5.15;3.50;;;;;;;16.87;100.00;101310.94;5073384;28;20033;-81
2023/09/28 02:35:18;;;;;;;6.80;4.10;;;;;;;16.80;100.00;101307.13;5087517;28;20129;-81
2023/09/28 02:37:48;;;;;;;5.03;3.90;;;;;;;16.81;100.00;101308.84;5080096;28;20074;-77
2023/09/28 02:40:15;;;;;;;5.47;4.25;;;;;;;16.75;100.00;101314.69;5054455;28;20036;-81
2023/09/28 02:42:48;;;;;;;9.88;4.60;;;;;;;16.71;100.00;101315.97;5081026;28;20034;-77
2023/09/28 02:45:17;;;;;;;;;;;;;;;16.85;100.00;101310.22;5088076;28;20032;-81
2023/09/28 02:47:48;;;;;;;4.38;3.85;;;;;;;16.70;100.00;101310.78;5091992;28;19912;-81
2023/09/28 02:50:16;;;;;;;5.68;4.10;;;;;;;16.67;100.00;101308.41;5091743;28;20052;-80
2023/09/28 02:52:45;;;;;;;6.65;4.47;;;;;;;16.65;100.00;101320.97;5092105;28;20249;-78
2023/09/28 02:55:12;;;;;;;5.13;3.88;;;;;;;16.64;100.00;101316.66;5056930;28;20024;-80
2023/09/28 02:57:38;;;;;;;5.82;4.57;;;;;;;16.60;100.00;101311.63;5081738;28;20016;-76
2023/09/28 03:00:24;;;;;;;6.63;4.20;;;;;;;16.57;100.00;101316.38;5054250;28;20020;-80
2023/09/28 03:02:51;;;;;;;5.90;4.07;;;;;;;16.52;100.00;101319.47;5064767;28;20035;-80
2023/09/28 03:05:20;;;;;;;4.43;3.95;;;;;;;16.47;100.00;101316.38;5092249;28;20059;-77
2023/09/28 03:07:46;;;;;;;5.53;4.35;;;;;;;16.47;100.00;101326.16;5089444;28;20122;-81
2023/09/28 03:10:12;;;;;;;6.13;4.07;;;;;;;16.42;100.00;101326.59;5073910;28;20063;-81
2023/09/28 03:12:39;;;;;;;6.45;4.50;;;;;;;16.44;100.00;101339.72;5071038;28;20024;-82
2023/09/28 03:15:07;;;;;;;9.80;4.70;;;;;;;16.41;100.00;101337.31;5081299;28;20756;-77
2023/09/28 03:17:34;;;;;;;7.47;4.70;;;;;;;16.43;100.00;101338.91;5071245;28;20021;-77
2023/09/28 03:20:00;;;;;;;7.68;4.63;;;;;;;16.42;100.00;101333.72;5051696;28;20035;-81
2023/09/28 03:22:25;;;;;;;6.18;4.45;;;;;;;16.43;100.00;101335.41;5033401;28;20024;-81
2023/09/28 03:24:50;;;;;;;5.93;4.22;;;;;;;16.41;100.00;101342.63;5051529;28;20116;-81
2023/09/28 03:27:17;;;;;;;9.40;5.00;;;;;;;16.36;100.00;101350.19;5062634;28;20047;-80
2023/09/28 03:29:43;;;;;;;7.97;4.85;;;;;;;16.30;100.00;101349.75;5090440;28;20046;-76
2023/09/28 03:32:09;;;;;;;7.65;4.70;;;;;;;16.32;100.00;101346.13;5080070;28;20029;-76
2023/09/28 03:34:35;;;;;;;5.95;4.45;;;;;;;16.26;100.00;101350.19;5071183;28;20123;-76
2023/09/28 03:37:00;;;;;;;9.00;4.65;;;;;;;16.24;100.00;101358.28;5071164;28;20020;-81
2023/09/28 03:39:26;;;;;;;7.32;4.68;;;;;;;16.22;100.00;101354.94;5071143;28;20170;-81
2023/09/28 03:41:51;;;;;;;6.68;4.88;;;;;;;16.20;100.00;101359.53;5084337;28;20036;-81
2023/09/28 03:44:16;;;;;;;8.98;4.40;;;;;;;16.20;100.00;101367.50;5069996;28;20103;-81
2023/09/28 03:46:42;;;;;;;9.48;4.80;;;;;;;16.19;100.00;101376.44;5070530;28;20074;-81
2023/09/28 03:49:07;;;;;;;7.97;5.10;;;;;;;16.13;100.00;101384.13;5062144;28;20086;-76
2023/09/28 03:51:33;;;;;;;5.68;4.80;;;;;;;16.09;100.00;101385.38;5078885;28;20036;-77
2023/09/28 03:53:58;;;;;;;5.10;4.68;;;;;;;16.09;100.00;101377.41;5054459;28;20128;-81
2023/09/28 03:56:24;;;;;;;6.20;4.93;;;;;;;16.09;100.00;101375.59;5085093;28;20024;-76
2023/09/28 03:58:49;;;;;;;7.45;4.90;;;;;;;16.03;100.00;101376.16;5087538;28;20075;-81
2023/09/28 04:01:15;;;;;;;6.45;4.70;;;;;;;16.03;100.00;101370.00;5091221;28;20032;-78
2023/09/28 04:03:41;;;;;;;8.75;5.15;;;;;;;16.03;100.00;101381.44;5056681;28;20032;-81
2023/09/28 04:06:06;;;;;;;6.72;5.07;;;;;;;15.99;100.00;101386.16;5062917;28;20079;-77
2023/09/28 04:08:33;;;;;;;6.70;5.13;;;;;;;15.96;100.00;101383.78;5070025;28;20032;-77
2023/09/28 04:10:58;;;;;;;7.40;5.25;;;;;;;15.95;100.00;101386.56;5070538;28;20099;-77
2023/09/28 04:13:24;;;;;;;7.97;5.15;;;;;;;15.92;100.00;101393.00;5069652;28;20116;-77
2023/09/28 04:15:50;;;;;;;7.65;5.22;;;;;;;15.90;100.00;101396.75;5069768;28;20024;-77
2023/09/28 04:18:15;;;;;;;7.18;4.75;;;;;;;15.89;100.00;101390.59;5070223;28;20037;-82
2023/09/28 04:20:48;;;;;;;5.88;4.70;;;;;;;15.88;100.00;101394.25;5071509;28;20024;-81
2023/09/28 04:23:13;;;;;;;6.18;4.93;;;;;;;15.81;100.00;101385.13;5074926;28;20029;-82
2023/09/28 04:25:42;;;;;;;8.38;5.45;;;;;;;15.75;100.00;101385.69;5064387;28;20020;-81
2023/09/28 04:28:07;;;;;;;8.30;4.88;;;;;;;15.75;100.00;101390.16;5087899;28;20024;-81
2023/09/28 04:30:34;;;;;;;6.20;4.95;;;;;;;15.72;100.00;101387.75;5071629;28;20072;-81
2023/09/28 04:32:59;;;;;;;6.22;5.07;;;;;;;15.68;100.00;101394.31;5062628;28;20510;-77
2023/09/28 04:35:25;;;;;;;8.10;5.53;;;;;;;15.63;100.00;101390.25;5083779;28;20020;-81
2023/09/28 04:37:54;;;;;;;10.07;5.50;;;;;;;15.62;100.00;101398.34;5089608;28;20024;-81
2023/09/28 04:40:24;;;;;;;6.35;5.63;;;;;;;15.48;100.00;101396.81;5079248;28;20035;-81
2023/09/28 04:42:50;;;;;;;6.65;5.18;;;;;;;15.48;100.00;101402.13;5049621;28;20024;-81
2023/09/28 04:45:15;;;;;;;9.52;5.80;;;;;;;15.52;100.00;101408.84;5078578;28;20041;-77
2023/09/28 04:47:42;;;;;;;7.47;5.65;;;;;;;15.47;100.00;101413.69;5080905;28;20154;-81
2023/09/28 04:50:09;;;;;;;7.88;6.00;;;;;;;15.42;100.00;101413.25;5051743;28;20089;-81
2023/09/28 04:52:34;;;;;;;8.20;6.20;;;;;;;15.46;100.00;101412.03;5069707;28;20029;-81
2023/09/28 04:55:01;;;;;;;10.13;6.07;;;;;;;15.42;100.00;101402.66;5068501;28;20025;-81
2023/09/28 04:57:26;;;;;;;7.70;5.38;;;;;;;15.46;100.00;101404.06;5073775;28;20029;-81
2023/09/28 04:59:53;;;;;;;8.60;6.15;;;;;;;15.45;100.00;101422.75;5048236;28;20481;-81
2023/09/28 05:02:19;;;;;;;13.30;6.15;;;;;;;15.43;100.00;101433.50;5048731;28;20025;-81
2023/09/28 05:04:44;;;;;;;8.93;5.35;;;;;;;15.45;100.00;101428.06;5076260;28;20035;-81
2023/09/28 05:07:09;;;;;;;9.05;5.55;;;;;;;15.46;100.00;101440.34;5067386;28;20024;-81
2023/09/28 05:09:35;;;;;;;10.98;5.60;;;;;;;15.45;100.00;101444.81;5082883;28;20107;-77
2023/09/28 05:12:01;;;;;;;7.28;4.82;;;;;;;15.45;100.00;101444.81;5050159;28;20543;-81
2023/09/28 05:14:27;;;;;;;9.25;5.70;;;;;;;15.44;100.00;101443.13;5054930;28;20024;-81
2023/09/28 05:16:54;;;;;;;9.07;5.30;;;;;;;15.40;100.00;101447.03;5069672;28;20016;-77
2023/09/28 05:19:21;;;;;;;6.85;4.80;;;;;;;15.38;100.00;101456.94;5069862;28;20074;-81
2023/09/28 05:21:47;;;;;;;9.00;5.07;;;;;;;15.36;100.00;101456.22;5069009;28;20025;-82
2023/09/28 05:24:13;;;;;;;9.23;5.25;;;;;;;15.33;100.00;101464.44;5068896;28;20024;-82
2023/09/28 05:26:40;;;;;;;11.68;5.00;;;;;;;15.32;100.00;101476.00;5068998;28;20024;-82
2023/09/28 05:29:05;;;;;;;10.65;5.28;;;;;;;15.25;100.00;101475.69;5071296;28;20024;-82
2023/09/28 05:31:30;;;;;;;9.23;5.68;;;;;;;15.23;100.00;101474.97;5072684;28;20097;-81
2023/09/28 05:33:56;;;;;;;12.02;5.32;;;;;;;15.23;100.00;101480.28;5091212;28;20048;-81
2023/09/28 05:36:21;;;;;;;11.30;4.95;;;;;;;15.20;100.00;101477.84;5067443;28;20115;-81
2023/09/28 05:38:47;;;;;;;7.90;4.63;;;;;;;15.14;100.00;101480.19;5069277;28;20507;-82
2023/09/28 05:41:12;;;;;;;7.00;4.68;;;;;;;15.12;100.00;101472.34;5079174;28;20473;-77
2023/09/28 05:43:38;;;;;;;10.05;5.00;;;;;;;15.03;100.00;101481.91;5072432;28;20062;-79
2023/09/28 05:46:04;;;;;;;11.10;5.30;;;;;;;15.07;100.00;101498.41;5080202;28;20082;-77
2023/09/28 05:48:31;;;;;;;10.88;4.75;;;;;;;15.02;100.00;101496.13;5073372;28;20036;-82
2023/09/28 05:50:57;;;;;;;9.73;5.18;;;;;;;15.01;100.00;101499.75;5071644;28;20074;-77
2023/09/28 05:53:22;;;;;;;9.10;4.93;;;;;;;15.00;100.00;101491.94;5072224;28;20024;-81
2023/09/28 05:55:51;;;;;;;11.90;5.60;;;;;;;14.98;100.00;101500.00;5073062;28;20043;-81
2023/09/28 05:58:16;;;;;;;12.00;4.88;;;;;;;14.95;100.00;101510.84;5071269;28;20025;-77
2023/09/28 06:00:41;;;;;;;8.95;5.00;;;;;;;14.97;100.00;101519.53;5075631;28;20034;-82
2023/09/28 06:03:10;;;;;;;12.70;5.25;;;;;;;14.91;100.00;101520.03;5073723;28;20020;-82
2023/09/28 06:05:35;;;;;;;9.35;5.18;;;;;;;14.91;100.00;101520.03;5070294;28;20079;-82
2023/09/28 06:08:01;;;;;;;11.18;5.13;;;;;;;14.85;100.00;101531.13;5079640;28;20326;-82
2023/09/28 06:10:27;;;;;;;9.52;5.60;;;;;;;14.89;100.00;101519.31;5060811;28;20072;-77
2023/09/28 06:12:52;;;;;;;9.25;5.20;;;;;;;14.90;100.00;101517.50;5079153;28;20048;-77
2023/09/28 06:15:19;;;;;;;13.35;5.68;;;;;;;14.91;100.00;101512.06;5081126;28;20095;-77
2023/09/28 06:17:47;;;;;;;9.43;4.90;;;;;;;14.93;100.00;101510.13;5078780;28;20027;-82
2023/09/28 06:20:12;;;;;;;12.25;5.35;;;;;;;14.94;100.00;101514.47;5056406;28;20032;-82
2023/09/28 06:22:38;;;;;;;9.95;4.82;;;;;;;14.91;100.00;101527.97;5054768;28;20017;-82
2023/09/28 06:25:04;;;;;;;10.68;5.03;;;;;;;14.93;100.00;101528.69;5062971;28;20042;-76
2023/09/28 06:27:29;;;;;;;15.98;5.97;;;;;;;14.91;100.00;101535.94;5071852;28;20023;-82
2023/09/28 06:29:55;;;;;;;12.70;5.05;;;;;;;14.94;100.00;101535.66;5067350;28;20090;-82
2023/09/28 06:32:21;;;;;;;12.95;5.28;;;;;;;14.92;100.00;101547.38;5076507;28;20024;-82
2023/09/28 06:34:47;;;;;;;13.20;5.55;;;;;;;14.96;100.00;101557.59;5079422;28;20043;-82
2023/09/28 06:37:12;;;;;;;14.45;5.70;;;;;;;14.96;100.00;101562.88;5071611;28;20016;-82
2023/09/28 06:39:38;;;;;;;11.82;4.95;;;;;;;15.02;100.00;101554.44;5071334;28;20475;-83
2023/09/28 06:42:04;;;;;;;16.23;5.13;;;;;;;15.03;100.00;101556.13;5087538;28;20080;-82
2023/09/28 06:44:30;;;;;;;15.18;5.25;;;;;;;15.08;100.00;101554.91;5081522;28;20035;-84
2023/09/28 06:46:57;;;;;;;16.08;4.80;;;;;;;15.10;100.00;101551.16;5051754;28;20388;-75
2023/09/28 06:49:22;;;;;;;13.57;4.78;;;;;;;15.15;100.00;101553.44;5071616;28;20046;-79
2023/09/28 06:51:49;;;;;;;17.88;5.07;;;;;;;15.21;100.00;101564.41;5072948;28;20020;-75
2023/09/28 06:54:15;;;;;;;15.93;4.72;;;;;;;15.27;100.00;101576.31;5068211;28;20077;-76
2023/09/28 06:56:42;;;;;;;18.85;4.97;;;;;;;15.32;100.00;101579.41;5071746;28;20056;-77
2023/09/28 06:59:08;;;;;;;20.88;5.57;;;;;;;15.39;100.00;101577.94;5072763;28;20118;-75
2023/09/28 07:01:34;;;;;;;17.48;5.05;;;;;;;15.45;100.00;101572.13;5082883;28;20168;-77
2023/09/28 07:04:00;;;;;;;16.92;5.32;;;;;;;15.56;100.00;101585.31;5089358;28;20024;-77
2023/09/28 07:06:25;;;;;;;21.75;5.35;;;;;;;15.70;100.00;101591.34;5085823;28;20035;-77
2023/09/28 07:08:52;;;;;;;15.85;4.70;;;;;;;15.81;100.00;101588.63;5063827;28;20017;-77
2023/09/28 07:11:19;;;;;;;16.63;4.95;;;;;;;15.89;100.00;101580.84;5058890;28;20025;-76
2023/09/28 07:13:44;;;;;;;15.32;4.60;;;;;;;16.05;100.00;101569.78;5086694;28;20508;-76
2023/09/28 07:16:10;;;;;;;15.45;4.93;;;;;;;16.12;100.00;101568.28;5070614;28;20028;-76
2023/09/28 07:18:36;;;;;;;19.45;5.13;;;;;;;16.21;100.00;101575.47;5071545;28;20025;-76
2023/09/28 07:21:02;;;;;;;16.70;5.60;;;;;;;16.27;100.00;101581.06;5069923;28;20028;-77
2023/09/28 07:23:28;;;;;;;19.73;5.50;;;;;;;16.28;100.00;101566.81;5071161;28;20509;-78
2023/09/28 07:25:55;;;;;;;20.52;5.68;;;;;;;16.27;100.00;101565.16;5071640;28;20097;-78
2023/09/28 07:28:21;;;;;;;17.77;5.55;;;;;;;16.27;100.00;101570.47;5072132;28;20028;-78
2023/09/28 07:30:46;;;;;;;16.52;5.15;;;;;;;16.24;100.00;101576.03;5071920;28;20036;-77
2023/09/28 07:33:15;;;;;;;20.88;5.43;;;;;;;16.26;100.00;101589.19;5061982;28;20028;-79
2023/09/28 07:35:43;;;;;;;18.15;5.28;;;;;;;16.29;100.00;101600.38;5066645;28;20582;-80
2023/09/28 07:38:08;;;;;;;20.55;5.28;;;;;;;16.30;100.00;101604.72;5074890;28;20031;-80
2023/09/28 07:40:34;;;;;;;26.00;5.57;;;;;;;16.41;100.00;101597.63;5082390;28;20188;-80
2023/09/28 07:43:00;;;;;;;21.05;5.03;;;;;;;16.54;100.00;101608.91;5072537;28;20052;-80
2023/09/28 07:45:25;;;;;;;21.80;5.90;;;;;;;16.65;100.00;101608.78;5079750;28;20076;-80
2023/09/28 07:47:50;;;;;;;23.10;5.68;;;;;;;16.73;100.00;101608.97;5068759;28;20025;-80
2023/09/28 07:50:16;;;;;;;23.58;5.70;;;;;;;16.85;100.00;101607.09;5068226;28;20064;-80
2023/09/28 07:52:42;;;;;;;22.80;5.85;;;;;;;16.91;100.00;101607.38;5064032;28;20075;-80
2023/09/28 07:55:08;;;;;;;22.73;5.65;;;;;;;17.02;100.00;101610.91;5073420;28;20555;-81
2023/09/28 07:57:33;;;;;;;21.73;5.78;;;;;;;17.06;100.00;101610.47;5068420;28;20032;-80
2023/09/28 08:00:00;;;;;;;21.80;5.43;;;;;;;17.16;100.00;101615.81;5087508;28;20085;-80
2023/09/28 08:02:26;;;;;;;22.52;5.75;;;;;;;17.35;100.00;101615.84;5080766;28;20111;-79
2023/09/28 08:04:53;;;;;;;21.73;5.70;;;;;;;17.48;100.00;101621.75;5078132;28;20119;-80
2023/09/28 08:07:18;;;;;;;23.20;5.28;;;;;;;17.62;98.64;101627.66;5078509;28;20047;-81
2023/09/28 08:09:43;;;;;;;20.77;5.50;;;;;;;17.75;98.00;101622.91;5089585;28;20020;-78
2023/09/28 08:12:09;;;;;;;23.38;5.35;;;;;;;17.76;95.69;101624.59;5062220;28;20025;-78
2023/09/28 08:14:35;;;;;;;23.05;5.75;;;;;;;17.77;95.67;101628.94;5056163;28;20032;-81
2023/09/28 08:17:00;;;;;;;21.98;4.97;;;;;;;17.89;95.15;101632.28;5070678;28;20034;-78
2023/09/28 08:19:25;;;;;;;21.45;5.50;;;;;;;17.99;94.38;101633.94;5067382;28;20062;-80
2023/09/28 08:21:52;;;;;;;17.25;4.70;;;;;;;18.10;93.52;101632.97;5090260;28;20444;-79
2023/09/28 08:24:18;;;;;;;22.38;5.47;;;;;;;18.15;91.49;101644.88;5058111;28;20048;-80
2023/09/28 08:26:44;;;;;;;20.92;5.38;;;;;;;18.29;91.68;101632.91;5081881;28;20115;-79
2023/09/28 08:29:10;;;;;;;21.58;5.43;;;;;;;18.35;90.64;101637.66;5078360;28;20020;-80
2023/09/28 08:31:36;;;;;;;18.17;4.90;;;;;;;18.42;89.10;101633.44;5074274;28;20070;-79
2023/09/28 08:34:03;;;;;;;26.75;5.60;;;;;;;18.52;89.30;101641.41;5089728;28;20024;-80
2023/09/28 08:36:29;;;;;;;23.08;5.28;;;;;;;18.60;87.06;101648.66;5089452;28;20102;-76
2023/09/28 08:38:56;;;;;;;22.10;5.35;;;;;;;18.53;84.97;101648.41;5089542;28;20023;-80
2023/09/28 08:41:36;;;;;;;19.77;4.70;;;;;;;18.40;86.62;101655.88;5089702;28;20032;-79
2023/09/28 08:44:06;;;;;;;20.92;4.97;;;;;;;18.41;86.87;101666.41;5078629;28;20456;-80
2023/09/28 08:46:40;;;;;;;23.50;5.53;;;;;;;18.35;85.29;101674.13;5080612;28;20104;-80
2023/09/28 08:49:15;;;;;;;24.83;6.00;;;;;;;18.40;87.13;101666.53;5072872;28;20502;-76
2023/09/28 08:51:40;;;;;;;25.83;5.63;;;;;;;18.45;84.43;101674.97;5064259;28;20032;-80
2023/09/28 08:54:06;;;;;;;22.33;6.40;;;;;;;18.41;85.99;101674.41;5069947;28;20029;-80
2023/09/28 08:56:37;;;;;;;22.48;6.25;;;;;;;18.54;84.53;101675.91;5078523;28;20399;-79
2023/09/28 08:59:05;;;;;;;24.77;5.88;;;;;;;18.60;84.94;101675.31;5081140;28;20023;-79
2023/09/28 09:01:32;;;;;;;19.40;5.90;;;;;;;18.58;85.12;101664.81;5088579;28;20081;-80
2023/09/28 09:03:58;;;;;;;19.75;6.20;;;;;;;18.60;87.57;101668.16;5063926;28;20067;-78
2023/09/28 09:06:24;;;;;;;27.13;6.30;;;;;;;18.70;84.98;101661.00;5073954;28;20028;-78
2023/09/28 09:08:52;;;;;;;19.27;5.30;;;;;;;18.80;82.65;101668.94;5082920;28;20020;-79
2023/09/28 09:11:18;;;;;;;19.65;5.22;;;;;;;18.97;82.96;101670.03;5081187;28;20038;-80
2023/09/28 09:13:51;;;;;;;25.48;6.13;;;;;;;19.07;82.80;101678.81;5086118;28;20039;-79
2023/09/28 09:16:17;;;;;;;24.80;5.63;;;;;;;19.28;81.15;101673.22;5091757;28;20028;-80
2023/09/28 09:18:43;;;;;;;20.25;5.55;;;;;;;19.57;79.89;101675.72;5090648;28;20032;-80
2023/09/28 09:21:09;;;;;;;19.75;5.30;;;;;;;19.76;78.74;101680.94;5089391;28;20031;-80
2023/09/28 09:23:36;;;;;;;25.20;5.68;;;;;;;19.83;78.39;101684.66;5058348;28;20759;-79
2023/09/28 09:26:17;;;;;;;18.90;5.25;;;;;;;19.97;78.25;101675.25;5076028;28;20950;-80
2023/09/28 09:28:44;;;;;;;21.38;5.30;;;;;;;20.17;75.45;101676.75;5089338;28;20023;-79
2023/09/28 09:31:10;;;;;;;19.63;5.25;;;;;;;20.37;74.36;101688.09;5089725;28;20032;-79
2023/09/28 09:33:36;;;;;;;25.75;5.47;;;;;;;20.66;73.36;101685.13;5090045;28;20024;-80
2023/09/28 09:36:02;;;;;;;19.55;5.22;;;;;;;20.84;71.24;101679.72;5065672;28;20473;-79
2023/09/28 09:38:29;;;;;;;16.52;4.32;;;;;;;21.10;68.81;101679.66;5071780;28;20804;-79
2023/09/28 09:41:02;;;;;;;20.05;5.38;;;;;;;21.52;69.80;101671.59;5077005;28;20488;-79
2023/09/28 09:43:34;;;;;;;18.15;4.95;;;;;;;21.95;64.68;101673.16;5076179;28;20085;-79
2023/09/28 09:46:04;;;;;;;27.20;5.40;;;;;;;21.61;64.71;101673.28;5076153;28;20055;-81
2023/09/28 09:48:38;;;;;;;19.02;4.70;;;;;;;21.59;66.96;101675.28;5092067;28;20293;-80
2023/09/28 09:51:07;;;;;;;21.27;4.88;;;;;;;21.61;64.56;101681.31;5080068;28;20020;-81
2023/09/28 09:53:34;;;;;;;20.38;4.53;;;;;;;21.90;64.76;101688.88;5054452;28;20392;-79
2023/09/28 09:56:01;;;;;;;20.45;4.63;;;;;;;22.60;62.56;101683.00;5077614;28;20052;-80
2023/09/28 09:58:37;;;;;;;18.13;4.65;;;;;;;22.20;64.95;101698.16;5059469;28;20069;-79
2023/09/28 10:01:10;;;;;;;17.52;4.68;;;;;;;22.38;64.41;101677.31;5076780;28;20078;-80
2023/09/28 10:03:36;;;;;;;18.77;4.72;;;;;;;22.83;60.18;101675.09;5084441;28;20028;-79
2023/09/28 10:06:03;;;;;;;21.25;4.75;;;;;;;23.29;61.61;101681.44;5079806;28;20239;-80
2023/09/28 10:08:32;;;;;;;18.20;4.57;;;;;;;23.40;60.88;101676.47;5090656;28;20496;-80
2023/09/28 10:11:00;;;;;;;22.27;4.72;;;;;;;22.97;59.47;101664.44;5080519;28;20039;-80
2023/09/28 10:13:27;;;;;;;19.55;5.03;;;;;;;22.46;61.09;101657.72;5066709;28;20062;-79
2023/09/28 10:15:54;;;;;;;20.75;5.13;;;;;;;22.29;63.20;101662.25;5081539;28;20354;-81
2023/09/28 10:18:21;;;;;;;19.83;5.43;;;;;;;22.00;63.39;101659.25;5068455;28;20380;-80
2023/09/28 10:20:48;;;;;;;16.67;4.20;;;;;;;21.58;64.28;101654.88;5062824;28;20028;-80
2023/09/28 10:23:23;;;;;;;14.27;4.38;;;;;;;21.58;64.25;101647.66;5085724;28;20404;-80
2023/09/28 10:26:07;;;;;;;19.55;4.65;;;;;;;21.63;64.91;101643.69;5072404;28;20165;-81
2023/09/28 10:28:36;;;;;;;15.18;4.30;;;;;;;21.43;64.42;101643.13;5066331;28;20032;-80
2023/09/28 10:31:11;;;;;;;16.20;3.83;;;;;;;21.37;64.77;101652.66;5060871;28;20406;-81
2023/09/28 10:34:00;;;;;;;15.07;4.28;;;;;;;21.52;68.57;101645.66;5083230;28;20404;-80
2023/09/28 10:36:26;;;;;;;17.88;4.60;;;;;;;21.37;64.11;101663.38;5081226;28;20048;-80
2023/09/28 10:39:14;;;;;;;17.13;4.22;;;;;;;21.26;66.08;101661.84;5073401;28;20134;-80
2023/09/28 10:41:43;;;;;;;17.20;3.88;;;;;;;21.05;64.18;101660.56;5068568;28;20028;-79
2023/09/28 10:44:21;;;;;;;15.73;4.30;;;;;;;21.04;66.75;101659.72;5083958;28;20016;-79
2023/09/28 10:46:51;;;;;;;16.92;4.10;;;;;;;20.96;66.60;101663.22;5062306;28;20028;-78
2023/09/28 10:49:24;;;;;;;18.00;4.13;;;;;;;21.00;67.78;101662.88;5095267;28;20040;-79
2023/09/28 10:51:51;;;;;;;18.33;4.47;;;;;;;21.05;65.95;101672.09;5064696;28;20017;-79
2023/09/28 10:54:17;;;;;;;20.48;4.43;;;;;;;20.98;65.27;101667.56;5066310;28;20070;-79
2023/09/28 10:56:43;;;;;;;16.60;4.20;;;;;;;21.08;67.85;101655.72;5079824;28;20108;-80
2023/09/28 10:59:11;;;;;;;18.52;4.47;;;;;;;21.08;66.57;101666.44;5072576;28;20034;-79
2023/09/28 11:01:43;;;;;;;16.63;4.03;;;;;;;21.17;68.24;101675.31;5081445;28;20105;-80
2023/09/28 11:04:09;;;;;;;18.83;3.70;;;;;;;21.10;66.47;101675.13;5066221;28;20519;-79
2023/09/28 11:06:35;;;;;;;18.08;4.07;;;;;;;21.08;67.22;101673.63;5086329;28;20154;-79
2023/09/28 11:09:04;;;;;;;17.23;4.63;;;;;;;21.09;67.06;101683.31;5078458;28;20035;-79
2023/09/28 11:11:31;;;;;;;15.55;3.92;;;;;;;21.12;67.26;101685.69;5058406;28;20492;-79
2023/09/28 11:13:57;;;;;;;17.08;4.00;;;;;;;21.04;67.61;101697.19;5074652;28;20016;-79
2023/09/28 11:16:24;;;;;;;18.73;4.70;;;;;;;21.06;67.45;101684.50;5091331;28;20024;-78
2023/09/28 11:18:49;;;;;;;16.08;4.03;;;;;;;21.10;67.27;101680.47;5083798;28;20004;-79